Time;durP1;ratioP1;P1;durP2;ratioP2;P2;SDS_P1;SDS_P2;PMS_P1;PMS_P2;Temp;Humidity;BMP_temperature;BMP_pressure;BME280_temperature;BME280_humidity;BME280_pressure;Samples;Min_cycle;Max_cycle;Signal;HPM_P1;HPM_P2
2023/04/09 00:00:16;;;;;;;10.73;6.30;;;;;;;8.62;71.08;97369.22;5100068;28;20191;-80
2023/04/09 00:02:44;;;;;;;9.50;6.67;;;;;;;8.66;71.01;97373.38;5098499;28;20209;-82
2023/04/09 00:05:11;;;;;;;9.00;6.90;;;;;;;8.69;70.79;97370.72;5064892;28;20193;-83
2023/04/09 00:07:38;;;;;;;9.67;7.20;;;;;;;8.23;72.66;97372.16;5079880;28;20221;-83
2023/04/09 00:10:05;;;;;;;9.03;6.77;;;;;;;8.38;72.20;97377.75;5062496;28;20190;-84
2023/04/09 00:12:32;;;;;;;10.13;7.10;;;;;;;8.36;72.82;97364.06;5075385;28;20185;-82
2023/04/09 00:14:59;;;;;;;14.67;7.00;;;;;;;8.38;72.30;97364.88;5081191;28;20204;-86
2023/04/09 00:17:26;;;;;;;8.53;6.50;;;;;;;8.50;72.05;97380.81;5078124;28;20207;-80
2023/04/09 00:19:53;;;;;;;12.27;6.90;;;;;;;8.47;71.36;97369.75;5073309;28;20198;-82
2023/04/09 00:22:20;;;;;;;9.87;7.13;;;;;;;8.57;72.12;97371.94;5028526;28;1230424;-84
2023/04/09 00:24:47;;;;;;;9.43;6.67;;;;;;;8.48;72.06;97381.75;5073473;28;20207;-81
2023/04/09 00:27:15;;;;;;;11.10;6.30;;;;;;;8.42;72.17;97376.78;5077862;28;20256;-86
2023/04/09 00:29:42;;;;;;;9.97;6.60;;;;;;;8.24;72.99;97373.84;5060762;28;20193;-85
2023/04/09 00:32:09;;;;;;;9.40;6.53;;;;;;;8.31;72.21;97378.84;5079126;28;20687;-81
2023/04/09 00:34:37;;;;;;;7.90;6.23;;;;;;;8.33;72.30;97383.06;5076893;28;20193;-84
2023/04/09 00:37:05;;;;;;;9.93;6.43;;;;;;;8.09;72.39;97364.03;5076990;28;20198;-84
2023/04/09 00:39:35;;;;;;;9.20;6.30;;;;;;;8.15;73.01;97386.19;5075820;28;20193;-84
2023/04/09 00:42:02;;;;;;;9.50;6.27;;;;;;;7.83;73.29;97382.00;5056312;28;20606;-84
2023/04/09 00:44:29;;;;;;;9.70;6.03;;;;;;;7.96;72.58;97382.47;5056145;28;20181;-86
2023/04/09 00:46:59;;;;;;;10.03;6.67;;;;;;;8.05;72.60;97379.63;5075743;28;20213;-78
2023/04/09 00:49:26;;;;;;;7.57;5.57;;;;;;;8.00;72.87;97374.59;5088198;28;20212;-76
2023/04/09 00:51:53;;;;;;;8.80;6.40;;;;;;;7.87;73.97;97378.44;5080100;28;20216;-86
2023/04/09 00:54:20;;;;;;;10.70;6.60;;;;;;;7.74;73.27;97364.22;5057164;28;20699;-86
2023/04/09 00:56:47;;;;;;;9.10;6.33;;;;;;;7.84;73.74;97375.97;5073775;28;20228;-82
2023/04/09 00:59:15;;;;;;;10.07;6.47;;;;;;;7.83;72.61;97376.00;5071830;28;20196;-82
2023/04/09 01:01:42;;;;;;;8.60;6.33;;;;;;;7.74;73.65;97379.69;5075108;28;20652;-83
2023/04/09 01:04:09;;;;;;;8.00;6.00;;;;;;;7.88;73.20;97385.28;5071781;28;20191;-83
2023/04/09 01:06:39;;;;;;;8.53;5.93;;;;;;;7.85;73.44;97380.22;5050489;28;20201;-84
2023/04/09 01:09:41;;;;;;;10.17;6.77;;;;;;;7.84;73.06;97375.97;5049920;28;20197;-83
2023/04/09 01:12:10;;;;;;;9.63;6.37;;;;;;;7.88;74.13;97374.13;5048961;28;20205;-85
2023/04/09 01:15:02;;;;;;;9.03;6.20;;;;;;;7.74;74.19;97356.50;5050195;28;20268;-84
2023/04/09 01:17:49;;;;;;;8.00;5.77;;;;;;;7.87;73.97;97367.28;5067480;28;20592;-81
2023/04/09 01:20:32;;;;;;;11.27;6.70;;;;;;;7.89;74.07;97368.09;5049833;28;20645;-84
2023/04/09 01:23:46;;;;;;;10.00;6.03;;;;;;;7.88;73.59;97367.25;5067680;28;20262;-83
2023/04/09 01:26:45;;;;;;;8.60;6.53;;;;;;;7.89;74.11;97375.81;5057035;28;20182;-83
2023/04/09 01:29:15;;;;;;;10.53;6.50;;;;;;;7.77;73.89;97361.53;5050443;28;20203;-82
2023/04/09 01:31:44;;;;;;;9.57;6.67;;;;;;;7.88;72.78;97368.97;5067581;28;20240;-85
2023/04/09 01:34:12;;;;;;;9.93;6.67;;;;;;;7.87;72.75;97364.72;5068886;28;20200;-82
2023/04/09 01:36:41;;;;;;;11.10;7.27;;;;;;;7.47;73.98;97357.28;5069950;28;20189;-83
2023/04/09 01:39:08;;;;;;;12.63;8.73;;;;;;;7.43;75.06;97368.56;5072893;28;20193;-84
2023/04/09 01:41:36;;;;;;;11.53;8.03;;;;;;;7.41;75.11;97370.34;5058697;28;20185;-82
2023/04/09 01:44:06;;;;;;;11.47;7.90;;;;;;;7.46;75.26;97371.03;5067450;28;20275;-81
2023/04/09 01:46:35;;;;;;;13.97;7.77;;;;;;;7.52;74.26;97365.75;5067153;28;20195;-80
2023/04/09 01:49:03;;;;;;;13.00;8.10;;;;;;;7.49;74.62;97370.97;5067000;28;20288;-83
2023/04/09 01:51:31;;;;;;;13.33;8.43;;;;;;;7.43;74.96;97372.88;5049325;28;20229;-79
2023/04/09 01:53:59;;;;;;;10.87;7.97;;;;;;;7.24;75.65;97364.81;5067814;28;20200;-79
2023/04/09 01:56:26;;;;;;;12.43;8.10;;;;;;;7.12;75.71;97337.69;5070901;28;20630;-82
2023/04/09 01:58:54;;;;;;;12.47;9.03;;;;;;;7.22;76.66;97359.72;5050773;28;20184;-81
2023/04/09 02:01:56;;;;;;;13.43;8.90;;;;;;;7.13;76.97;97364.28;5049263;28;20200;-82
2023/04/09 02:04:35;;;;;;;10.60;8.50;;;;;;;6.86;77.36;97323.81;5030094;28;20253;-83
2023/04/09 02:07:29;;;;;;;14.33;8.17;;;;;;;7.05;76.81;97363.59;5067797;28;20642;-83
2023/04/09 02:09:59;;;;;;;13.00;8.07;;;;;;;6.86;77.61;97373.53;5058412;28;20243;-83
2023/04/09 02:12:28;;;;;;;12.43;7.23;;;;;;;6.79;77.97;97371.19;5069031;28;20219;-82
2023/04/09 02:14:56;;;;;;;12.20;7.63;;;;;;;6.86;77.95;97367.56;5049883;28;20249;-81
2023/04/09 02:17:23;;;;;;;11.03;7.23;;;;;;;6.89;78.98;97363.19;5048883;28;20173;-83
2023/04/09 02:19:50;;;;;;;12.37;7.80;;;;;;;6.83;78.44;97370.22;5049398;28;20195;-82
2023/04/09 02:22:18;;;;;;;16.00;9.40;;;;;;;6.62;78.73;97363.88;5049287;28;20230;-85
2023/04/09 02:24:45;;;;;;;14.90;9.13;;;;;;;6.75;79.12;97377.28;5067529;28;20199;-83
2023/04/09 02:27:12;;;;;;;13.30;8.73;;;;;;;6.77;78.91;97367.81;5066535;28;20249;-82
2023/04/09 02:29:39;;;;;;;12.93;8.13;;;;;;;6.36;79.25;97333.69;5049638;28;20180;-85
2023/04/09 02:32:06;;;;;;;14.20;8.57;;;;;;;6.22;80.21;97348.56;5048896;28;20184;-83
2023/04/09 02:34:33;;;;;;;13.37;8.40;;;;;;;6.28;79.62;97363.03;5073946;28;20695;-87
2023/04/09 02:37:00;;;;;;;14.13;8.90;;;;;;;6.11;80.16;97353.13;5069488;28;20218;-84
2023/04/09 02:39:27;;;;;;;15.30;8.83;;;;;;;6.24;80.12;97359.69;5081996;28;20203;-85
2023/04/09 02:41:55;;;;;;;14.97;9.17;;;;;;;6.37;79.82;97373.06;5049109;28;20201;-82
2023/04/09 02:44:22;;;;;;;16.90;9.40;;;;;;;6.47;79.73;97370.25;5066699;28;20187;-81
2023/04/09 02:46:50;;;;;;;14.10;8.23;;;;;;;6.58;79.64;97368.28;5048442;28;20192;-78
2023/04/09 02:49:18;;;;;;;17.27;9.60;;;;;;;6.67;77.74;97356.06;5066748;28;20277;-83
2023/04/09 02:51:45;;;;;;;21.77;12.83;;;;;;;6.80;76.58;97365.97;5048428;28;20188;-76
2023/04/09 02:54:12;;;;;;;20.37;11.93;;;;;;;6.77;77.35;97372.94;5048616;28;20579;-83
2023/04/09 02:56:39;;;;;;;21.20;12.07;;;;;;;6.80;76.88;97360.84;5066084;28;20565;-81
2023/04/09 02:59:06;;;;;;;15.70;9.73;;;;;;;6.67;77.57;97345.75;5066734;28;20187;-79
2023/04/09 03:01:33;;;;;;;17.77;10.83;;;;;;;6.78;77.44;97374.66;5048053;28;20182;-82
2023/04/09 03:04:01;;;;;;;17.37;11.00;;;;;;;6.86;77.25;97365.81;5049247;28;20239;-81
2023/04/09 03:06:28;;;;;;;13.80;9.63;;;;;;;6.86;76.47;97365.00;5066989;28;20193;-82
2023/04/09 03:08:55;;;;;;;16.93;9.37;;;;;;;6.66;76.86;97339.75;5069032;28;20223;-81
2023/04/09 03:11:22;;;;;;;14.50;8.80;;;;;;;6.79;76.40;97378.91;5067808;28;20196;-82
2023/04/09 03:13:49;;;;;;;13.57;8.27;;;;;;;6.58;76.10;97362.28;5066758;28;20193;-79
2023/04/09 03:16:16;;;;;;;13.47;9.13;;;;;;;6.58;76.57;97373.41;5069081;28;20199;-82
2023/04/09 03:18:43;;;;;;;14.80;8.57;;;;;;;6.57;77.02;97376.84;5076178;28;20203;-82
2023/04/09 03:21:10;;;;;;;12.07;8.07;;;;;;;6.57;77.10;97371.72;5058356;28;20267;-79
2023/04/09 03:23:45;;;;;;;15.20;8.97;;;;;;;6.56;77.00;97375.19;5052336;28;20213;-80
2023/04/09 03:26:12;;;;;;;15.03;8.83;;;;;;;6.71;76.52;97373.09;5052257;28;20671;-84
2023/04/09 03:28:49;;;;;;;13.30;7.90;;;;;;;6.59;76.32;97358.84;5060951;28;20307;-77
2023/04/09 03:31:16;;;;;;;12.67;7.73;;;;;;;6.71;75.71;97373.09;5065640;28;20210;-81
2023/04/09 03:33:44;;;;;;;12.80;7.93;;;;;;;6.71;76.03;97375.69;5052654;28;20204;-82
2023/04/09 03:36:12;;;;;;;14.77;8.00;;;;;;;6.69;76.77;97373.16;5054053;28;20191;-82
2023/04/09 03:39:18;;;;;;;11.67;7.87;;;;;;;6.56;75.70;97357.19;5068092;28;20204;-80
2023/04/09 03:41:45;;;;;;;12.67;7.57;;;;;;;6.66;76.36;97372.41;5071773;28;20267;-81
2023/04/09 03:44:15;;;;;;;10.57;6.63;;;;;;;6.69;76.52;97380.03;5105509;28;20231;-82
2023/04/09 03:46:58;;;;;;;10.77;7.70;;;;;;;6.52;77.50;97383.88;5072295;28;20198;-83
2023/04/09 03:49:27;;;;;;;12.40;8.10;;;;;;;6.45;77.81;97381.50;5071010;28;20186;-81
2023/04/09 03:52:00;;;;;;;13.63;8.97;;;;;;;6.41;77.34;97383.25;5071726;28;20195;-81
2023/04/09 03:54:35;;;;;;;14.70;9.67;;;;;;;5.99;78.27;97355.16;5054585;28;20658;-83
2023/04/09 03:57:06;;;;;;;13.47;9.17;;;;;;;5.98;78.51;97374.00;5105209;28;20194;-79
2023/04/09 04:00:12;;;;;;;13.40;8.53;;;;;;;6.07;79.01;97377.22;5098174;28;20691;-81
2023/04/09 04:02:58;;;;;;;12.97;8.30;;;;;;;6.26;78.24;97381.06;5097378;28;20183;-84
2023/04/09 04:05:45;;;;;;;18.63;8.53;;;;;;;6.25;77.68;97353.66;5090241;28;20190;-82
2023/04/09 04:08:14;;;;;;;11.57;7.57;;;;;;;6.56;77.19;97385.47;5072388;28;20246;-80
2023/04/09 04:10:41;;;;;;;11.53;7.80;;;;;;;6.75;75.97;97385.00;5071212;28;20187;-82
2023/04/09 04:13:10;;;;;;;12.03;7.73;;;;;;;6.95;75.39;97369.88;5071840;28;20188;-81
2023/04/09 04:15:46;;;;;;;12.47;7.87;;;;;;;7.22;74.24;97380.31;5058282;28;20208;-83
2023/04/09 04:18:15;;;;;;;13.23;8.40;;;;;;;7.19;74.21;97369.25;5051218;28;20617;-80
2023/04/09 04:20:46;;;;;;;11.53;7.80;;;;;;;7.21;73.08;97383.75;5050799;28;20675;-78
2023/04/09 04:23:13;;;;;;;10.03;7.50;;;;;;;7.33;72.68;97380.88;5064662;28;20229;-81
2023/04/09 04:26:01;;;;;;;9.80;7.03;;;;;;;7.34;72.22;97387.69;5088337;28;20205;-83
2023/04/09 04:28:32;;;;;;;12.97;7.83;;;;;;;7.36;71.84;97392.81;5070408;28;20349;-83
2023/04/09 04:30:59;;;;;;;12.77;8.10;;;;;;;7.46;72.04;97391.66;5089207;28;20219;-81
2023/04/09 04:33:29;;;;;;;10.03;7.53;;;;;;;7.49;72.42;97380.44;5058212;28;20201;-83
2023/04/09 04:36:07;;;;;;;11.03;7.70;;;;;;;7.76;70.52;97401.13;5051014;28;20266;-82
2023/04/09 04:38:40;;;;;;;10.47;7.90;;;;;;;8.03;69.37;97409.78;5051134;28;20530;-84
2023/04/09 04:41:14;;;;;;;12.40;7.53;;;;;;;8.23;69.45;97407.44;5051260;28;20254;-84
2023/04/09 04:43:47;;;;;;;12.43;8.20;;;;;;;8.22;68.88;97406.56;5092362;28;20202;-83
2023/04/09 04:46:19;;;;;;;10.27;8.00;;;;;;;8.29;68.15;97414.16;5050876;28;20638;-81
2023/04/09 04:48:47;;;;;;;11.53;8.50;;;;;;;8.34;68.77;97412.31;5050626;28;20640;-81
2023/04/09 04:51:14;;;;;;;14.73;9.63;;;;;;;8.31;68.63;97404.63;5057860;28;20192;-83
2023/04/09 04:53:49;;;;;;;14.07;9.50;;;;;;;8.03;69.34;97409.78;5080905;28;20184;-78
2023/04/09 04:56:17;;;;;;;13.03;8.93;;;;;;;8.04;69.11;97425.19;5077858;28;20187;-82
2023/04/09 04:58:57;;;;;;;12.57;8.47;;;;;;;7.98;70.16;97417.66;5073223;28;20693;-78
2023/04/09 05:01:24;;;;;;;11.27;8.47;;;;;;;8.05;69.48;97421.75;5082837;28;20234;-83
2023/04/09 05:03:52;;;;;;;10.43;7.53;;;;;;;7.83;69.93;97412.94;5089969;28;20233;-84
2023/04/09 05:06:32;;;;;;;12.03;8.47;;;;;;;8.10;69.88;97431.91;5070732;28;20180;-85
2023/04/09 05:09:04;;;;;;;12.47;8.37;;;;;;;8.08;70.42;97419.06;5070143;28;20220;-83
2023/04/09 05:11:42;;;;;;;14.53;8.43;;;;;;;8.40;70.23;97435.34;5069257;28;20464;-85
2023/04/09 05:14:17;;;;;;;12.57;8.57;;;;;;;8.61;68.86;97421.75;5069555;28;20188;-83
2023/04/09 05:16:44;;;;;;;10.63;8.07;;;;;;;8.69;69.33;97422.34;5081683;28;20247;-82
2023/04/09 05:19:11;;;;;;;10.23;7.77;;;;;;;8.53;69.35;97398.75;5051437;28;20184;-81
2023/04/09 05:21:38;;;;;;;10.00;7.50;;;;;;;8.36;69.23;97361.50;5066489;28;20229;-83
2023/04/09 05:24:05;;;;;;;11.03;8.03;;;;;;;8.96;68.76;97421.47;5068697;28;20573;-81
2023/04/09 05:26:33;;;;;;;10.40;7.43;;;;;;;9.17;67.98;97415.53;5054137;28;20208;-84
2023/04/09 05:29:01;;;;;;;14.53;8.70;;;;;;;9.44;67.65;97418.91;5054165;28;20773;-84
2023/04/09 05:31:28;;;;;;;11.87;8.27;;;;;;;9.41;67.46;97414.72;5071493;28;20181;-84
2023/04/09 05:34:01;;;;;;;9.50;7.30;;;;;;;9.55;67.62;97406.47;5069445;28;20215;-81
2023/04/09 05:36:49;;;;;;;10.30;7.50;;;;;;;9.27;68.10;97423.84;5069002;28;20219;-81
2023/04/09 05:39:17;;;;;;;10.50;7.67;;;;;;;9.09;68.93;97422.72;5051863;28;20189;-82
2023/04/09 05:41:45;;;;;;;9.43;7.20;;;;;;;9.28;68.97;97417.75;5069008;28;20224;-81
2023/04/09 05:44:24;;;;;;;10.13;7.13;;;;;;;9.04;69.07;97393.63;5088133;28;20196;-80
2023/04/09 05:46:57;;;;;;;9.77;7.00;;;;;;;9.05;69.98;97409.97;5052995;28;20254;-79
2023/04/09 05:49:31;;;;;;;9.80;6.40;;;;;;;8.69;71.54;97409.44;5066244;28;20232;-78
2023/04/09 05:51:59;;;;;;;9.13;6.40;;;;;;;8.56;72.16;97396.09;5068287;28;20561;-79
2023/04/09 05:54:30;;;;;;;8.67;6.40;;;;;;;8.45;72.58;97399.91;5068593;28;20181;-79
2023/04/09 05:56:57;;;;;;;8.60;6.70;;;;;;;8.82;72.03;97403.00;5068312;28;20635;-77
2023/04/09 05:59:25;;;;;;;10.80;6.30;;;;;;;9.42;70.50;97408.63;5067267;28;20691;-78
2023/04/09 06:01:52;;;;;;;10.27;7.17;;;;;;;9.71;67.90;97397.25;5068480;28;20710;-79
2023/04/09 06:04:19;;;;;;;8.37;5.67;;;;;;;9.93;65.39;97384.38;5069680;28;20210;-82
2023/04/09 06:06:47;;;;;;;7.17;5.27;;;;;;;10.03;64.79;97396.91;5076723;28;20186;-78
2023/04/09 06:09:14;;;;;;;7.60;5.50;;;;;;;10.13;64.84;97400.00;5068776;28;20229;-82
2023/04/09 06:11:41;;;;;;;9.63;6.80;;;;;;;9.95;65.51;97390.34;5081927;28;20188;-78
2023/04/09 06:14:11;;;;;;;9.97;6.50;;;;;;;10.17;66.14;97399.84;5075393;28;20207;-79
2023/04/09 06:16:38;;;;;;;24.93;8.63;;;;;;;10.28;65.31;97389.91;5068267;28;20177;-81
2023/04/09 06:19:07;;;;;;;14.93;6.77;;;;;;;10.26;65.12;97403.81;5052089;28;20200;-81
2023/04/09 06:21:34;;;;;;;9.90;6.60;;;;;;;10.23;64.82;97401.34;5086341;28;20248;-81
2023/04/09 06:24:01;;;;;;;8.27;6.37;;;;;;;10.57;64.54;97407.72;5086294;28;20197;-81
2023/04/09 06:26:28;;;;;;;8.57;6.47;;;;;;;10.70;63.27;97402.91;5086601;28;20193;-81
2023/04/09 06:28:55;;;;;;;13.30;8.37;;;;;;;11.07;62.18;97403.06;5080255;28;20228;-79
2023/04/09 06:31:22;;;;;;;10.37;7.30;;;;;;;11.15;61.95;97408.78;5066979;28;20220;-80
2023/04/09 06:33:49;;;;;;;9.97;6.03;;;;;;;11.43;60.85;97411.91;5067270;28;20547;-81
2023/04/09 06:36:17;;;;;;;11.10;6.50;;;;;;;11.58;60.47;97409.53;5049443;28;20200;-79
2023/04/09 06:38:44;;;;;;;7.50;5.77;;;;;;;11.60;59.78;97416.34;5048497;28;20186;-82
2023/04/09 06:41:11;;;;;;;8.17;5.07;;;;;;;11.53;59.16;97409.75;5065880;28;20185;-79
2023/04/09 06:43:38;;;;;;;9.93;6.27;;;;;;;11.63;59.76;97394.59;5066022;28;20198;-82
2023/04/09 06:46:05;;;;;;;10.07;7.03;;;;;;;11.63;60.02;97407.56;5081273;28;20232;-83
2023/04/09 06:48:34;;;;;;;9.23;6.27;;;;;;;11.65;59.65;97406.59;5048260;28;20316;-82
2023/04/09 06:51:01;;;;;;;8.43;4.97;;;;;;;11.34;60.43;97399.31;5069530;28;20211;-80
2023/04/09 06:53:29;;;;;;;7.87;5.70;;;;;;;11.46;60.11;97409.16;5070652;28;20193;-77
2023/04/09 06:55:56;;;;;;;13.70;6.90;;;;;;;11.69;60.03;97407.34;5035089;28;20700;-81
2023/04/09 06:58:23;;;;;;;7.40;6.03;;;;;;;11.66;60.10;97410.94;5070352;28;20670;-83
2023/04/09 07:00:50;;;;;;;6.17;4.83;;;;;;;11.67;58.22;97410.00;5069275;28;20187;-82
2023/04/09 07:03:17;;;;;;;6.53;5.23;;;;;;;11.73;58.59;97412.31;5051615;28;20205;-79
2023/04/09 07:05:45;;;;;;;7.13;4.63;;;;;;;11.55;56.84;97405.31;5035408;28;20259;-82
2023/04/09 07:08:12;;;;;;;6.00;4.47;;;;;;;11.71;56.70;97408.09;5069786;28;20192;-81
2023/04/09 07:10:39;;;;;;;8.90;5.20;;;;;;;11.93;55.94;97401.06;5070125;28;20280;-78
2023/04/09 07:13:07;;;;;;;9.50;6.13;;;;;;;12.01;56.51;97409.34;5069617;28;20191;-80
2023/04/09 07:15:34;;;;;;;7.90;6.00;;;;;;;12.14;56.02;97392.28;5070394;28;20210;-79
2023/04/09 07:18:00;;;;;;;9.43;5.83;;;;;;;12.30;55.50;97393.28;5052165;28;20200;-78
2023/04/09 07:20:28;;;;;;;8.83;5.43;;;;;;;12.49;55.57;97401.84;5074684;28;20187;-77
2023/04/09 07:22:57;;;;;;;7.13;4.93;;;;;;;12.47;54.49;97382.09;5074919;28;20194;-77
2023/04/09 07:25:24;;;;;;;12.00;8.70;;;;;;;12.74;54.18;97376.38;5076137;28;20213;-78
2023/04/09 07:27:51;;;;;;;9.20;5.70;;;;;;;13.02;53.70;97394.06;5086334;28;20292;-83
2023/04/09 07:30:18;;;;;;;8.77;5.63;;;;;;;12.99;53.00;97376.00;5089699;28;20228;-80
2023/04/09 07:32:46;;;;;;;6.83;5.27;;;;;;;13.04;53.71;97384.47;5091925;28;20206;-75
2023/04/09 07:35:13;;;;;;;8.73;5.27;;;;;;;13.05;53.13;97386.97;5110726;28;20190;-78
2023/04/09 07:37:39;;;;;;;6.13;5.17;;;;;;;13.10;52.45;97398.91;5091448;28;20223;-78
2023/04/09 07:40:27;;;;;;;7.27;5.10;;;;;;;13.37;51.72;97402.72;5089800;28;20242;-84
2023/04/09 07:42:54;;;;;;;5.70;4.77;;;;;;;13.33;50.92;97391.66;5104297;28;20196;-78
2023/04/09 07:45:21;;;;;;;6.03;5.00;;;;;;;13.19;51.75;97394.09;5089958;28;20234;-84
2023/04/09 07:47:49;;;;;;;7.67;4.90;;;;;;;13.42;51.26;97403.31;5070479;28;20201;-85
2023/04/09 07:50:16;;;;;;;6.63;5.20;;;;;;;13.52;51.25;97401.91;5089353;28;20570;-82
2023/04/09 07:52:43;;;;;;;6.30;4.83;;;;;;;13.58;51.23;97404.25;5088822;28;20191;-83
2023/04/09 07:55:10;;;;;;;6.37;5.17;;;;;;;13.63;51.61;97413.47;5089116;28;20212;-74
2023/04/09 07:57:38;;;;;;;10.03;6.77;;;;;;;13.74;50.79;97408.56;5089308;28;20253;-79
2023/04/09 08:00:06;;;;;;;8.93;6.00;;;;;;;13.75;50.32;97412.84;5088702;28;20241;-82
2023/04/09 08:03:19;;;;;;;7.47;5.70;;;;;;;13.77;49.71;97417.94;5089629;28;20270;-75
2023/04/09 08:06:40;;;;;;;6.20;4.80;;;;;;;13.50;50.57;97409.81;5077613;28;20195;-75
2023/04/09 08:09:21;;;;;;;7.20;5.60;;;;;;;13.64;49.32;97393.50;5076854;28;20223;-82
2023/04/09 08:11:48;;;;;;;8.67;5.67;;;;;;;13.67;50.21;97414.16;5103297;28;20248;-79
2023/04/09 08:14:16;;;;;;;5.10;4.60;;;;;;;13.38;47.98;97394.00;5072708;28;20215;-82
2023/04/09 08:16:45;;;;;;;5.90;4.60;;;;;;;13.35;48.50;97425.38;5089867;28;20217;-83
2023/04/09 08:19:15;;;;;;;4.63;3.80;;;;;;;13.36;47.34;97416.63;5089746;28;20601;-79
2023/04/09 08:21:43;;;;;;;5.47;4.47;;;;;;;13.47;48.22;97419.56;5090076;28;20246;-83
2023/04/09 08:24:10;;;;;;;6.13;4.33;;;;;;;13.36;48.33;97386.28;5090284;28;20283;-85
2023/04/09 08:26:39;;;;;;;5.53;3.67;;;;;;;13.61;49.03;97419.69;5091011;28;20217;-82
2023/04/09 08:29:07;;;;;;;7.93;4.30;;;;;;;13.78;49.65;97424.84;5091871;28;20231;-81
2023/04/09 08:31:36;;;;;;;3.93;3.50;;;;;;;13.85;49.20;97428.81;5089777;28;20287;-78
2023/04/09 08:34:04;;;;;;;4.87;3.17;;;;;;;13.78;46.76;97425.72;5093059;28;20211;-79
2023/04/09 08:36:33;;;;;;;4.00;3.47;;;;;;;13.69;47.48;97428.78;5091240;28;20196;-81
2023/04/09 08:39:01;;;;;;;4.00;2.67;;;;;;;13.68;47.14;97414.06;5089085;28;20188;-78
2023/04/09 08:41:28;;;;;;;4.47;3.17;;;;;;;13.70;47.52;97427.84;5089685;28;20193;-83
2023/04/09 08:43:56;;;;;;;3.90;2.97;;;;;;;13.63;48.17;97420.44;5088831;28;20230;-84
2023/04/09 08:46:26;;;;;;;7.13;3.00;;;;;;;13.19;45.04;97419.28;5088768;28;20292;-83
2023/04/09 08:48:54;;;;;;;4.60;3.47;;;;;;;12.99;45.85;97428.84;5089215;28;20213;-82
2023/04/09 08:51:23;;;;;;;5.53;3.60;;;;;;;12.89;48.04;97417.22;5089582;28;20199;-84
2023/04/09 08:54:00;;;;;;;3.67;3.13;;;;;;;12.79;47.21;97429.00;5092258;28;20206;-84
2023/04/09 08:56:30;;;;;;;4.47;3.33;;;;;;;12.98;46.21;97421.97;5096161;28;20194;-80
2023/04/09 08:58:58;;;;;;;4.40;3.40;;;;;;;12.75;47.23;97432.66;5097701;28;20218;-79
2023/04/09 09:01:27;;;;;;;4.53;3.30;;;;;;;13.04;47.28;97415.66;5092814;28;20199;-81
2023/04/09 09:04:04;;;;;;;5.27;4.00;;;;;;;13.35;46.53;97415.81;5088901;28;20234;-81
2023/04/09 09:06:34;;;;;;;4.00;3.47;;;;;;;13.35;46.68;97409.78;5070392;28;20184;-85
2023/04/09 09:09:12;;;;;;;4.10;3.30;;;;;;;13.30;46.20;97416.94;5088335;28;20633;-83
2023/04/09 09:11:44;;;;;;;3.47;3.17;;;;;;;13.69;44.23;97409.72;5086088;28;20214;-82
2023/04/09 09:14:13;;;;;;;3.40;2.90;;;;;;;13.78;43.80;97404.03;5087031;28;20222;-81
2023/04/09 09:16:42;;;;;;;3.70;3.00;;;;;;;13.91;44.43;97412.84;5087832;28;20196;-82
2023/04/09 09:19:29;;;;;;;5.10;4.10;;;;;;;13.54;46.03;97394.91;5087628;28;20497;-81
2023/04/09 09:22:02;;;;;;;3.70;3.10;;;;;;;13.55;45.17;97412.19;5069536;28;20223;-79
2023/04/09 09:24:31;;;;;;;4.37;3.37;;;;;;;13.79;44.31;97410.91;5088319;28;20239;-83
2023/04/09 09:26:59;;;;;;;4.80;4.00;;;;;;;13.95;44.67;97414.38;5087593;28;20196;-82
2023/04/09 09:29:27;;;;;;;3.93;3.03;;;;;;;13.38;45.31;97405.25;5082826;28;20275;-84
2023/04/09 09:31:55;;;;;;;5.17;3.30;;;;;;;13.58;45.55;97402.44;5066660;28;20206;-82
2023/04/09 09:34:23;;;;;;;4.33;3.03;;;;;;;13.96;45.16;97403.06;5087414;28;20186;-79
2023/04/09 09:36:50;;;;;;;4.83;3.70;;;;;;;13.53;45.15;97409.66;5069309;28;20192;-80
2023/04/09 09:39:17;;;;;;;5.70;3.80;;;;;;;13.57;45.46;97384.31;5086806;28;20578;-85
2023/04/09 09:41:45;;;;;;;5.33;3.67;;;;;;;14.01;44.80;97401.06;5087790;28;20218;-84
2023/04/09 09:44:30;;;;;;;4.53;3.57;;;;;;;13.60;45.16;97394.59;5087327;28;20187;-85
2023/04/09 09:46:58;;;;;;;5.83;4.17;;;;;;;13.61;45.68;97389.28;5087204;28;20991;-84
2023/04/09 09:49:25;;;;;;;6.17;5.57;;;;;;;13.99;45.19;97392.50;5068978;28;20240;-85
2023/04/09 09:51:57;;;;;;;3.53;3.13;;;;;;;14.09;42.79;97403.25;5086614;28;20636;-85
2023/04/09 09:54:25;;;;;;;4.20;3.80;;;;;;;13.89;43.94;97389.50;5086710;28;20218;-78
2023/04/09 09:56:56;;;;;;;4.20;3.80;;;;;;;14.24;43.94;97392.81;5086668;28;20180;-84
2023/04/09 09:59:29;;;;;;;5.20;3.60;;;;;;;14.17;44.13;97394.09;5105023;28;20223;-85
2023/04/09 10:02:01;;;;;;;4.90;3.63;;;;;;;14.07;44.50;97372.06;5087185;28;20195;-85
2023/04/09 10:04:32;;;;;;;3.90;3.50;;;;;;;14.10;44.82;97378.84;5087024;28;20184;-82
2023/04/09 10:07:03;;;;;;;4.23;3.70;;;;;;;13.98;44.91;97364.75;5086939;28;20279;-79
2023/04/09 10:09:31;;;;;;;5.97;3.83;;;;;;;14.46;44.95;97374.28;5087478;28;20311;-81
2023/04/09 10:11:59;;;;;;;6.83;3.83;;;;;;;14.87;43.76;97367.56;5096714;28;20193;-82
2023/04/09 10:14:28;;;;;;;7.53;3.63;;;;;;;15.18;42.37;97353.56;5075263;28;20288;-84
2023/04/09 10:16:55;;;;;;;4.83;4.10;;;;;;;15.10;43.09;97358.41;5065408;28;20266;-84
2023/04/09 10:19:22;;;;;;;6.17;3.77;;;;;;;14.95;40.08;97354.06;5054528;28;20189;-84
2023/04/09 10:21:55;;;;;;;3.70;3.33;;;;;;;14.78;40.32;97354.19;5056221;28;20259;-79
2023/04/09 10:24:23;;;;;;;6.50;4.20;;;;;;;15.06;40.83;97349.09;5070764;28;20240;-81
2023/04/09 10:26:53;;;;;;;4.83;4.13;;;;;;;15.18;41.13;97350.97;5071262;28;20194;-84
2023/04/09 10:29:27;;;;;;;3.83;3.53;;;;;;;14.97;39.00;97347.00;5091016;28;20622;-84
2023/04/09 10:32:03;;;;;;;5.53;4.03;;;;;;;14.70;42.78;97341.59;5090384;28;20254;-82
2023/04/09 10:34:35;;;;;;;5.03;4.23;;;;;;;15.22;42.52;97334.19;5090824;28;20230;-77
2023/04/09 10:37:02;;;;;;;9.27;4.30;;;;;;;15.39;41.74;97334.84;5091669;28;20223;-84
2023/04/09 10:39:31;;;;;;;4.60;3.80;;;;;;;15.09;44.24;97341.91;5092331;28;20656;-83
2023/04/09 10:42:01;;;;;;;4.37;3.70;;;;;;;14.90;44.58;97341.28;5092455;28;20196;-85
2023/04/09 10:44:31;;;;;;;5.10;3.23;;;;;;;15.11;45.03;97337.44;5090928;28;20204;-85
2023/04/09 10:46:58;;;;;;;5.73;4.00;;;;;;;15.28;43.53;97307.75;5092634;28;20209;-76
2023/04/09 10:49:26;;;;;;;4.17;3.70;;;;;;;15.36;42.83;97345.50;5055489;28;20750;-84
2023/04/09 10:52:01;;;;;;;4.87;3.80;;;;;;;15.34;42.28;97325.63;5091981;28;20184;-81
2023/04/09 10:54:34;;;;;;;3.97;3.57;;;;;;;15.46;43.51;97340.59;5091695;28;20282;-83
2023/04/09 10:57:06;;;;;;;6.50;4.10;;;;;;;15.68;43.58;97327.94;5090634;28;20193;-83
2023/04/09 10:59:33;;;;;;;4.27;3.77;;;;;;;15.72;42.95;97323.34;5062647;28;20259;-79
2023/04/09 11:02:01;;;;;;;4.40;3.97;;;;;;;15.53;41.79;97331.47;5087284;28;20691;-76
2023/04/09 11:04:47;;;;;;;5.20;3.93;;;;;;;15.43;40.89;97314.69;5091176;28;20280;-81
2023/04/09 11:07:16;;;;;;;4.60;3.70;;;;;;;14.92;38.58;97309.94;5090339;28;20655;-79
2023/04/09 11:09:43;;;;;;;7.30;4.07;;;;;;;14.73;39.63;97330.19;5071981;28;20232;-80
2023/04/09 11:12:10;;;;;;;4.83;3.53;;;;;;;14.83;40.86;97313.91;5069539;28;20194;-77
2023/04/09 11:14:37;;;;;;;4.30;3.70;;;;;;;14.71;41.22;97309.41;5069087;28;20661;-79
2023/04/09 11:17:04;;;;;;;5.97;3.90;;;;;;;15.00;41.01;97308.53;5070454;28;20205;-81
2023/04/09 11:19:34;;;;;;;4.80;4.30;;;;;;;15.19;42.04;97300.44;5069416;28;20652;-77
2023/04/09 11:22:08;;;;;;;5.00;3.80;;;;;;;15.32;42.13;97286.59;5069980;28;20229;-81
2023/04/09 11:24:41;;;;;;;5.73;4.07;;;;;;;15.67;42.93;97299.28;5069716;28;20287;-79
2023/04/09 11:27:08;;;;;;;4.63;3.67;;;;;;;15.92;42.80;97287.22;5069765;28;20216;-82
2023/04/09 11:29:35;;;;;;;4.17;3.80;;;;;;;16.07;42.03;97254.88;5069695;28;20229;-77
2023/04/09 11:32:06;;;;;;;8.43;4.17;;;;;;;16.11;41.90;97263.38;5074369;28;20249;-80
2023/04/09 11:34:33;;;;;;;4.33;3.63;;;;;;;16.01;39.98;97291.84;5072186;28;20185;-83
2023/04/09 11:37:05;;;;;;;4.40;3.87;;;;;;;15.22;40.05;97289.84;5071361;28;20189;-84
2023/04/09 11:39:36;;;;;;;4.50;4.10;;;;;;;15.43;41.33;97278.16;5090409;28;21106;-81
2023/04/09 11:42:03;;;;;;;5.37;4.10;;;;;;;14.78;38.52;97271.63;5090494;28;20658;-85
2023/04/09 11:44:30;;;;;;;4.90;4.20;;;;;;;15.12;37.87;97265.25;5090102;28;20645;-84
2023/04/09 11:46:58;;;;;;;4.23;3.83;;;;;;;15.16;37.10;97264.13;5090354;28;20196;-85
2023/04/09 11:49:25;;;;;;;4.83;4.33;;;;;;;15.25;35.35;97261.78;5089029;28;20671;-85